Time;durP1;ratioP1;P1;durP2;ratioP2;P2;SDS_P1;SDS_P2;PMS_P1;PMS_P2;Temp;Humidity;BMP_temperature;BMP_pressure;BME280_temperature;BME280_humidity;BME280_pressure;Samples;Min_cycle;Max_cycle;Signal;HPM_P1;HPM_P2
2022/08/03 00:01:26;;;;;;;6.35;3.35;;;20.80;75.20;;;;;;5051288;28;20033;-39
2022/08/03 00:03:52;;;;;;;4.03;3.08;;;20.80;75.30;;;;;;5052618;28;20143;-39
2022/08/03 00:06:18;;;;;;;4.95;2.70;;;20.80;75.30;;;;;;5052485;28;20032;-39
2022/08/03 00:08:43;;;;;;;3.92;3.17;;;20.70;75.40;;;;;;5052622;28;20037;-39
2022/08/03 00:11:09;;;;;;;4.53;2.63;;;20.70;75.60;;;;;;5051355;28;20029;-39
2022/08/03 00:13:35;;;;;;;5.13;3.08;;;20.80;75.50;;;;;;5051137;28;20120;-39
2022/08/03 00:16:01;;;;;;;6.13;2.88;;;20.80;76.00;;;;;;5051213;28;20032;-39
2022/08/03 00:18:26;;;;;;;5.05;2.75;;;20.70;75.70;;;;;;5053124;28;20029;-40
2022/08/03 00:20:52;;;;;;;5.45;3.05;;;20.60;75.70;;;;;;5052410;28;20035;-39
2022/08/03 00:23:17;;;;;;;6.30;2.90;;;20.60;75.90;;;;;;5052450;28;20460;-39
2022/08/03 00:25:43;;;;;;;5.97;3.00;;;20.60;76.10;;;;;;5052530;28;20017;-39
2022/08/03 00:28:09;;;;;;;6.03;2.65;;;20.60;76.30;;;;;;5055563;28;20025;-38
2022/08/03 00:30:35;;;;;;;5.35;3.75;;;20.60;76.20;;;;;;5056137;28;20163;-38
2022/08/03 00:33:00;;;;;;;3.90;3.33;;;20.50;76.20;;;;;;5056011;28;20021;-38
2022/08/03 00:35:27;;;;;;;8.88;4.18;;;20.50;76.10;;;;;;5056343;28;20075;-38
2022/08/03 00:37:52;;;;;;;6.80;2.97;;;20.50;76.00;;;;;;5054770;28;20021;-39
2022/08/03 00:40:19;;;;;;;7.93;3.28;;;20.50;75.90;;;;;;5054313;28;20091;-39
2022/08/03 00:42:59;;;;;;;6.20;3.40;;;20.50;75.90;;;;;;5054710;28;20048;-38
2022/08/03 00:45:30;;;;;;;6.18;3.35;;;20.50;76.00;;;;;;5056074;28;20033;-38
2022/08/03 00:47:56;;;;;;;6.10;3.30;;;20.50;76.10;;;;;;5054279;28;20029;-38
2022/08/03 00:50:24;;;;;;;3.30;2.65;;;20.50;76.50;;;;;;5054314;28;20079;-38
2022/08/03 00:52:55;;;;;;;6.03;4.07;;;20.50;77.10;;;;;;5055635;28;20021;-38
2022/08/03 00:55:21;;;;;;;7.22;3.60;;;20.50;77.50;;;;;;5055759;28;20119;-39
2022/08/03 00:57:47;;;;;;;4.50;3.15;;;20.50;77.80;;;;;;5055814;28;20112;-38
2022/08/03 01:00:19;;;;;;;7.40;3.60;;;20.50;77.50;;;;;;5054043;28;20171;-40
2022/08/03 01:02:44;;;;;;;4.93;2.80;;;20.40;77.30;;;;;;5055468;28;20021;-39
2022/08/03 01:05:11;;;;;;;6.07;3.05;;;20.40;77.20;;;;;;5053872;28;20035;-38
2022/08/03 01:08:01;;;;;;;4.63;3.08;;;20.40;77.20;;;;;;5055162;28;20029;-39
2022/08/03 01:11:05;;;;;;;4.03;2.80;;;20.30;77.20;;;;;;5053969;28;20029;-38
2022/08/03 01:13:43;;;;;;;6.97;3.92;;;20.30;77.20;;;;;;5054007;28;20090;-38
2022/08/03 01:16:18;;;;;;;5.90;3.13;;;20.30;77.20;;;;;;5055667;28;20504;-38
2022/08/03 01:19:12;;;;;;;5.68;3.10;;;20.30;77.20;;;;;;5055284;28;20056;-38
2022/08/03 01:21:55;;;;;;;6.47;2.90;;;20.30;77.20;;;;;;5054974;28;20496;-38
2022/08/03 01:24:43;;;;;;;4.55;3.30;;;20.30;77.30;;;;;;5055037;28;20044;-38
2022/08/03 01:27:17;;;;;;;5.00;3.17;;;20.30;77.30;;;;;;5055279;28;20040;-38
2022/08/03 01:30:05;;;;;;;4.25;2.63;;;20.30;77.90;;;;;;5055195;28;20041;-39
2022/08/03 01:32:48;;;;;;;4.45;3.22;;;20.20;78.60;;;;;;5055150;28;20086;-40
2022/08/03 01:35:19;;;;;;;4.00;2.90;;;20.20;78.50;;;;;;5055166;28;20029;-38
2022/08/03 01:37:57;;;;;;;7.53;3.53;;;20.10;79.10;;;;;;5055175;28;20025;-39
2022/08/03 01:40:26;;;;;;;8.48;3.55;;;20.10;79.10;;;;;;5054607;28;20374;-38
2022/08/03 01:42:58;;;;;;;3.30;3.00;;;20.00;79.10;;;;;;5054843;28;20063;-38
2022/08/03 01:45:25;;;;;;;3.80;2.58;;;20.00;79.30;;;;;;5053582;28;20105;-40
2022/08/03 01:47:52;;;;;;;3.47;2.60;;;19.90;79.40;;;;;;5054589;28;20029;-39
2022/08/03 01:50:25;;;;;;;3.20;2.72;;;19.80;79.50;;;;;;5054795;28;20397;-38
2022/08/03 01:52:53;;;;;;;6.30;3.38;;;19.80;79.60;;;;;;5055262;28;20318;-39
2022/08/03 01:55:21;;;;;;;5.97;3.38;;;19.80;79.90;;;;;;5054744;28;20031;-39
2022/08/03 01:57:49;;;;;;;4.93;3.25;;;19.80;79.80;;;;;;5054609;28;20024;-38
2022/08/03 02:00:15;;;;;;;6.22;3.15;;;19.80;79.90;;;;;;5054740;28;20462;-38
2022/08/03 02:02:42;;;;;;;4.53;2.65;;;19.70;80.30;;;;;;5054432;28;20021;-39
2022/08/03 02:05:10;;;;;;;9.55;4.88;;;19.80;80.30;;;;;;5054362;28;20032;-38
2022/08/03 02:07:38;;;;;;;5.57;3.17;;;19.70;80.20;;;;;;5054623;28;20491;-38
2022/08/03 02:10:06;;;;;;;4.25;2.80;;;19.70;80.20;;;;;;5054529;28;20473;-39
2022/08/03 02:12:33;;;;;;;5.53;3.25;;;19.70;80.30;;;;;;5054293;28;20044;-39
2022/08/03 02:15:00;;;;;;;4.35;3.00;;;19.70;80.30;;;;;;5053023;28;20029;-39
2022/08/03 02:17:27;;;;;;;8.68;3.45;;;19.70;80.20;;;;;;5054342;28;20021;-38
2022/08/03 02:19:57;;;;;;;6.60;3.08;;;19.80;80.30;;;;;;5052868;28;20025;-39
2022/08/03 02:22:24;;;;;;;7.43;3.30;;;19.70;80.30;;;;;;5054175;28;20025;-39
2022/08/03 02:24:50;;;;;;;4.22;3.15;;;19.70;80.40;;;;;;5054183;28;20255;-39
2022/08/03 02:27:25;;;;;;;12.85;3.42;;;19.70;80.50;;;;;;5053995;28;20025;-38
2022/08/03 02:30:06;;;;;;;11.82;4.18;;;19.70;80.50;;;;;;5053952;28;20051;-38
2022/08/03 02:32:36;;;;;;;4.93;3.40;;;19.70;80.50;;;;;;5053719;28;20037;-39
2022/08/03 02:35:04;;;;;;;5.95;3.22;;;19.70;80.70;;;;;;5054398;28;20048;-38
2022/08/03 02:37:33;;;;;;;6.15;4.00;;;19.70;80.70;;;;;;5053778;28;20045;-38
2022/08/03 02:40:06;;;;;;;4.03;3.22;;;19.60;80.60;;;;;;5053450;28;20053;-38
2022/08/03 02:42:34;;;;;;;8.07;2.92;;;19.60;80.80;;;;;;5054114;28;20387;-38
2022/08/03 02:45:04;;;;;;;7.00;3.40;;;19.60;80.90;;;;;;5054203;28;20061;-38
2022/08/03 02:47:31;;;;;;;7.88;2.80;;;19.60;80.90;;;;;;5053971;28;20021;-39
2022/08/03 02:49:58;;;;;;;7.03;2.90;;;19.60;81.00;;;;;;5053503;28;20090;-39
2022/08/03 02:52:27;;;;;;;4.28;2.55;;;19.60;80.80;;;;;;5054182;28;20024;-40
2022/08/03 02:54:58;;;;;;;3.20;2.30;;;19.50;80.80;;;;;;5054014;28;20029;-38
2022/08/03 02:57:26;;;;;;;3.55;2.67;;;19.40;81.00;;;;;;5053821;28;20075;-38
2022/08/03 02:59:54;;;;;;;7.53;3.47;;;19.40;81.30;;;;;;5053594;28;20078;-39
2022/08/03 03:02:20;;;;;;;5.53;3.08;;;19.30;81.50;;;;;;5053859;28;20021;-38
2022/08/03 03:04:49;;;;;;;4.10;3.47;;;19.30;81.90;;;;;;5053589;28;20032;-40
2022/08/03 03:07:16;;;;;;;7.70;3.22;;;19.30;82.10;;;;;;5053651;28;20410;-41
2022/08/03 03:09:43;;;;;;;5.47;3.58;;;19.30;82.20;;;;;;5052300;28;20060;-39
2022/08/03 03:12:11;;;;;;;5.28;4.78;;;19.30;82.20;;;;;;5053511;28;20029;-40
2022/08/03 03:14:37;;;;;;;8.25;3.17;;;19.30;82.20;;;;;;5053309;28;20074;-38
2022/08/03 03:17:05;;;;;;;6.30;3.95;;;19.30;82.20;;;;;;5053350;28;20080;-39
2022/08/03 03:19:32;;;;;;;5.90;3.83;;;19.30;82.10;;;;;;5053296;28;20454;-39
2022/08/03 03:22:02;;;;;;;6.30;3.45;;;19.30;82.20;;;;;;5053894;28;20342;-39
2022/08/03 03:24:29;;;;;;;5.30;3.35;;;19.20;82.30;;;;;;5053734;28;20029;-39
2022/08/03 03:26:55;;;;;;;4.57;3.10;;;19.20;82.50;;;;;;5053319;28;20029;-39
2022/08/03 03:29:22;;;;;;;5.10;3.05;;;19.20;82.60;;;;;;5053197;28;20543;-39
2022/08/03 03:31:48;;;;;;;7.88;3.60;;;19.20;82.60;;;;;;5053515;28;20029;-39
2022/08/03 03:34:14;;;;;;;3.95;2.58;;;19.10;82.80;;;;;;5053425;28;20078;-39
2022/08/03 03:36:40;;;;;;;6.18;3.30;;;19.00;83.00;;;;;;5053560;28;20025;-38
2022/08/03 19:38:40;;;;;;;7.97;3.25;;;27.60;49.10;;;;;;5090986;28;20385;-48
2022/08/03 19:41:12;;;;;;;6.68;1.95;;;27.50;49.40;;;;;;5089465;28;20214;-39
2022/08/03 19:43:59;;;;;;;7.55;2.05;;;27.50;49.70;;;;;;5090771;28;20025;-39
2022/08/03 19:46:26;;;;;;;8.25;3.33;;;27.50;49.90;;;;;;5090538;28;20476;-39
2022/08/03 19:49:04;;;;;;;4.82;2.25;;;27.40;49.90;;;;;;5090490;28;20345;-38
2022/08/03 19:51:32;;;;;;;8.85;2.35;;;27.40;49.90;;;;;;5089508;28;20051;-39
2022/08/03 19:54:03;;;;;;;5.65;2.15;;;27.40;50.00;;;;;;5091095;28;20078;-39
2022/08/03 19:56:30;;;;;;;7.78;1.83;;;27.30;50.00;;;;;;5089712;28;20530;-38
2022/08/03 19:58:58;;;;;;;6.20;2.05;;;27.30;50.20;;;;;;5090763;28;20091;-38
2022/08/03 20:01:24;;;;;;;7.53;2.42;;;27.30;50.40;;;;;;5090548;28;20022;-39
2022/08/03 20:03:51;;;;;;;7.35;2.20;;;27.30;50.50;;;;;;5090309;28;20016;-39
2022/08/03 20:06:20;;;;;;;3.85;1.50;;;27.30;50.70;;;;;;5089969;28;20028;-39
2022/08/03 20:08:47;;;;;;;7.68;1.88;;;27.20;50.80;;;;;;5090198;28;20448;-38
2022/08/03 20:11:13;;;;;;;10.93;3.25;;;27.20;51.00;;;;;;5090293;28;20039;-39
2022/08/03 20:13:39;;;;;;;6.40;1.88;;;27.20;51.20;;;;;;5090096;28;20021;-40
2022/08/03 20:16:05;;;;;;;7.00;3.03;;;27.10;51.30;;;;;;5090163;28;20384;-38
2022/08/03 20:18:32;;;;;;;6.63;2.08;;;27.00;51.40;;;;;;5090682;28;20028;-40
2022/08/03 20:21:02;;;;;;;7.72;2.55;;;26.90;51.60;;;;;;5090012;28;20020;-47
2022/08/03 20:23:33;;;;;;;9.70;2.15;;;26.90;51.70;;;;;;5089615;28;20081;-39
2022/08/03 20:25:59;;;;;;;5.30;1.73;;;26.80;52.00;;;;;;5088898;28;20020;-40
2022/08/03 20:28:33;;;;;;;6.47;2.35;;;26.80;52.10;;;;;;5089622;28;20086;-38
2022/08/03 20:30:59;;;;;;;6.40;1.77;;;26.80;52.20;;;;;;5089707;28;20035;-40
2022/08/03 20:33:25;;;;;;;10.52;2.20;;;26.70;52.40;;;;;;5089438;28;20032;-37
2022/08/03 20:35:51;;;;;;;10.10;2.90;;;26.70;52.60;;;;;;5089588;28;20078;-40
2022/08/03 20:38:17;;;;;;;8.30;2.50;;;26.60;52.80;;;;;;5089110;28;20048;-38
2022/08/03 20:40:43;;;;;;;6.85;2.60;;;26.50;53.00;;;;;;5088015;28;20020;-39
2022/08/03 20:43:09;;;;;;;6.40;1.95;;;26.50;53.00;;;;;;5087879;28;20021;-46
2022/08/03 20:45:36;;;;;;;4.40;2.08;;;26.50;53.00;;;;;;5087977;28;20108;-38
2022/08/03 20:48:03;;;;;;;5.75;1.80;;;26.50;53.30;;;;;;5085395;28;20028;-38
2022/08/03 20:50:30;;;;;;;7.15;2.38;;;26.40;53.30;;;;;;5074220;28;20035;-38
2022/08/03 20:52:56;;;;;;;7.18;2.42;;;26.40;53.50;;;;;;5075934;28;20107;-39
2022/08/03 20:55:22;;;;;;;8.55;3.28;;;26.40;53.50;;;;;;5075535;28;20090;-39
2022/08/03 20:57:48;;;;;;;11.23;5.97;;;26.30;53.60;;;;;;5075485;28;20488;-39
2022/08/03 21:00:16;;;;;;;7.18;1.95;;;26.30;53.80;;;;;;5075490;28;20021;-39
2022/08/03 21:02:42;;;;;;;12.20;4.50;;;26.30;54.10;;;;;;5075822;28;20464;-39
2022/08/03 21:05:09;;;;;;;5.38;2.33;;;26.20;54.10;;;;;;5075552;28;20017;-38
2022/08/03 21:07:56;;;;;;;7.63;2.20;;;26.20;54.30;;;;;;5076091;28;20028;-40
2022/08/03 21:10:27;;;;;;;9.10;2.20;;;26.20;54.30;;;;;;5075940;28;20039;-38
2022/08/03 21:13:03;;;;;;;7.93;1.70;;;26.10;54.60;;;;;;5074771;28;20021;-48
2022/08/03 21:15:32;;;;;;;5.22;1.80;;;26.10;54.70;;;;;;5074621;28;20415;-38
2022/08/03 21:18:09;;;;;;;3.20;1.88;;;26.00;54.80;;;;;;5074172;28;20029;-39
2022/08/03 21:20:35;;;;;;;4.90;1.45;;;25.90;54.90;;;;;;5074562;28;20032;-38
2022/08/03 21:23:03;;;;;;;14.18;2.30;;;25.90;55.00;;;;;;5074015;28;20189;-38
2022/08/03 21:25:32;;;;;;;2.80;1.45;;;25.90;55.10;;;;;;5075416;28;20094;-38
2022/08/03 21:27:59;;;;;;;6.38;1.63;;;25.90;55.40;;;;;;5073639;28;20088;-38
2022/08/03 21:30:27;;;;;;;11.18;2.05;;;25.80;55.60;;;;;;5074967;28;20033;-38
2022/08/03 21:32:55;;;;;;;9.35;1.60;;;25.80;55.70;;;;;;5074854;28;20491;-38
2022/08/03 21:35:22;;;;;;;6.15;2.25;;;25.70;55.70;;;;;;5075127;28;20388;-38
2022/08/03 21:40:34;;;;;;;2.47;1.60;;;25.70;56.30;;;;;;5075364;28;20032;-38
2022/08/03 21:43:01;;;;;;;7.38;2.25;;;25.60;56.30;;;;;;5075342;28;20483;-38
2022/08/03 21:45:27;;;;;;;10.27;3.92;;;25.60;56.60;;;;;;5073481;28;20036;-39
2022/08/03 21:47:57;;;;;;;11.98;3.25;;;25.70;57.60;;;;;;5074814;28;20095;-38
2022/08/03 21:50:24;;;;;;;7.43;2.40;;;25.50;58.10;;;;;;5074999;28;20169;-40
2022/08/03 21:52:50;;;;;;;8.63;2.75;;;25.50;57.90;;;;;;5075156;28;20025;-38
2022/08/03 21:55:16;;;;;;;8.50;2.72;;;25.40;58.60;;;;;;5074575;28;20107;-38
2022/08/03 21:57:49;;;;;;;6.82;2.95;;;25.30;60.30;;;;;;5074277;28;20035;-39
2022/08/03 22:00:17;;;;;;;8.70;2.70;;;25.20;61.20;;;;;;5073524;28;20439;-38
2022/08/03 22:02:54;;;;;;;7.15;2.67;;;25.10;61.20;;;;;;5072953;28;20020;-39
2022/08/03 22:05:20;;;;;;;10.88;2.83;;;25.00;61.40;;;;;;5074410;28;20469;-39
2022/08/03 22:07:46;;;;;;;7.32;2.03;;;24.90;61.80;;;;;;5074196;28;20066;-39
2022/08/03 22:10:13;;;;;;;11.48;2.35;;;24.80;61.30;;;;;;5074141;28;20428;-38
2022/08/03 22:12:39;;;;;;;3.28;1.90;;;24.80;61.10;;;;;;5074028;28;20060;-39
2022/08/03 22:15:08;;;;;;;8.30;3.70;;;24.80;61.30;;;;;;5074063;28;20029;-38
2022/08/03 22:17:36;;;;;;;7.63;2.70;;;24.80;61.40;;;;;;5074154;28;20024;-40
2022/08/03 22:20:05;;;;;;;8.32;3.17;;;24.80;61.80;;;;;;5074960;28;20044;-38
2022/08/03 22:22:34;;;;;;;6.90;2.45;;;24.80;62.30;;;;;;5073996;28;20023;-39
2022/08/03 22:25:07;;;;;;;6.68;2.80;;;24.60;62.40;;;;;;5074317;28;20074;-39
2022/08/03 22:27:37;;;;;;;7.20;2.30;;;24.50;62.30;;;;;;5073672;28;20434;-38
2022/08/03 22:30:15;;;;;;;6.70;1.73;;;24.50;62.30;;;;;;5073781;28;20020;-38
2022/08/03 22:32:42;;;;;;;6.65;2.80;;;24.40;61.70;;;;;;5073784;28;20093;-39
2022/08/03 22:35:10;;;;;;;5.68;2.15;;;24.50;61.80;;;;;;5083666;28;20096;-39
2022/08/03 22:37:37;;;;;;;6.78;1.95;;;24.40;62.20;;;;;;5073615;28;20492;-38
2022/08/03 22:40:11;;;;;;;6.70;1.80;;;24.30;62.30;;;;;;5073837;28;20483;-38
2022/08/03 22:42:39;;;;;;;2.58;1.58;;;24.30;62.20;;;;;;5073731;28;20024;-38
2022/08/03 22:45:06;;;;;;;16.02;4.38;;;24.30;62.10;;;;;;5073525;28;20448;-39
2022/08/03 22:47:38;;;;;;;5.63;1.90;;;24.30;62.00;;;;;;5073447;28;20035;-39
2022/08/03 22:50:06;;;;;;;6.57;2.45;;;24.30;62.30;;;;;;5073758;28;20044;-38
2022/08/03 22:52:32;;;;;;;8.13;2.20;;;24.30;62.20;;;;;;5073423;28;20432;-39
2022/08/03 22:55:03;;;;;;;3.35;1.70;;;24.40;61.80;;;;;;5073737;28;20093;-38
2022/08/03 22:57:33;;;;;;;5.32;2.22;;;24.30;62.30;;;;;;5073428;28;20139;-38
2022/08/03 23:00:00;;;;;;;9.15;2.17;;;24.20;62.40;;;;;;5073496;28;20024;-39
2022/08/03 23:02:27;;;;;;;9.45;2.65;;;24.10;62.80;;;;;;5073605;28;20074;-39
2022/08/03 23:04:56;;;;;;;10.07;2.90;;;24.00;63.20;;;;;;5074486;28;20047;-38
2022/08/03 23:07:31;;;;;;;13.52;3.70;;;23.90;63.40;;;;;;5073760;28;20081;-39
2022/08/03 23:10:00;;;;;;;7.40;2.00;;;23.90;63.60;;;;;;5073304;28;20025;-39
2022/08/03 23:12:28;;;;;;;6.97;1.77;;;23.90;63.60;;;;;;5072953;28;20020;-39
2022/08/03 23:14:58;;;;;;;8.88;2.38;;;23.90;63.80;;;;;;5072371;28;20461;-38
2022/08/03 23:17:25;;;;;;;8.77;2.55;;;24.00;63.50;;;;;;5073092;28;20107;-37
2022/08/03 23:19:52;;;;;;;6.25;2.00;;;24.00;63.50;;;;;;5073034;28;20392;-38
2022/08/03 23:22:19;;;;;;;7.43;2.08;;;23.90;63.80;;;;;;5073001;28;20078;-39
2022/08/03 23:24:44;;;;;;;4.38;1.77;;;23.80;64.10;;;;;;5073637;28;20024;-38
2022/08/03 23:27:10;;;;;;;6.55;1.77;;;23.70;64.10;;;;;;5072964;28;20085;-38
2022/08/03 23:29:38;;;;;;;7.15;2.08;;;23.80;64.10;;;;;;5073424;28;20055;-38
2022/08/03 23:32:05;;;;;;;3.63;1.73;;;23.70;64.20;;;;;;5071619;28;20024;-38
2022/08/03 23:37:18;;;;;;;7.30;2.15;;;23.80;64.30;;;;;;5072752;28;20052;-38
2022/08/03 23:39:46;;;;;;;3.25;1.50;;;23.70;64.30;;;;;;5072562;28;20029;-39
2022/08/03 23:42:18;;;;;;;8.18;2.00;;;23.70;64.10;;;;;;5072765;28;20024;-41
2022/08/03 23:44:44;;;;;;;7.68;1.73;;;23.70;64.20;;;;;;5072797;28;20028;-38
2022/08/03 23:47:11;;;;;;;8.70;2.42;;;23.70;64.20;;;;;;5072825;28;20033;-38
2022/08/03 23:49:37;;;;;;;9.55;2.08;;;23.70;64.20;;;;;;5072776;28;20129;-39
2022/08/03 23:52:11;;;;;;;7.30;2.10;;;23.60;64.20;;;;;;5072701;28;20078;-38
2022/08/03 23:55:16;;;;;;;6.47;1.52;;;23.70;64.30;;;;;;5072691;28;20029;-38
2022/08/03 23:57:41;;;;;;;8.32;2.92;;;23.60;64.30;;;;;;5072613;28;20105;-41
